Time;durP1;ratioP1;P1;durP2;ratioP2;P2;SDS_P1;SDS_P2;PMS_P1;PMS_P2;Temp;Humidity;BMP_temperature;BMP_pressure;BME280_temperature;BME280_humidity;BME280_pressure;Samples;Min_cycle;Max_cycle;Signal;HPM_P1;HPM_P2
2021/10/08 00:00:15;;;;;;;8.85;7.95;;;;;;;;;;5015891;28;20270;-74
2021/10/08 00:02:42;;;;;;;9.23;8.38;;;;;;;;;;5018673;28;20193;-74
2021/10/08 00:05:11;;;;;;;9.73;7.85;;;;;;;;;;5013883;28;20197;-74
2021/10/08 00:07:38;;;;;;;8.80;7.85;;;;;;;;;;5017747;28;20267;-73
2021/10/08 00:10:06;;;;;;;9.15;8.32;;;;;;;;;;5018518;28;20192;-74
2021/10/08 00:12:33;;;;;;;9.23;8.27;;;;;;;;;;5019039;28;20204;-73
2021/10/08 00:15:00;;;;;;;9.00;7.38;;;;;;;;;;5016883;28;20205;-74
2021/10/08 00:17:27;;;;;;;8.10;7.40;;;;;;;;;;5017303;28;20243;-73
2021/10/08 00:19:54;;;;;;;10.02;9.05;;;;;;;;;;5017191;28;20275;-74
2021/10/08 00:22:23;;;;;;;8.20;7.40;;;;;;;;;;5017724;28;20197;-73
2021/10/08 00:24:50;;;;;;;8.13;6.82;;;;;;;;;;5019976;28;20243;-74
2021/10/08 00:27:17;;;;;;;8.00;7.30;;;;;;;;;;5007368;28;20626;-73
2021/10/08 00:29:44;;;;;;;10.07;9.07;;;;;;;;;;5017427;28;20279;-74
2021/10/08 00:32:11;;;;;;;8.73;7.75;;;;;;;;;;5016107;28;20647;-74
2021/10/08 00:34:38;;;;;;;9.95;7.93;;;;;;;;;;5014368;28;20204;-73
2021/10/08 00:37:05;;;;;;;9.32;8.35;;;;;;;;;;5017433;28;20199;-73
2021/10/08 00:39:33;;;;;;;8.63;7.15;;;;;;;;;;5015779;28;20272;-72
2021/10/08 00:42:00;;;;;;;7.95;7.15;;;;;;;;;;5014372;28;20279;-73
2021/10/08 00:44:30;;;;;;;7.82;7.10;;;;;;;;;;5018930;28;20193;-74
2021/10/08 00:46:58;;;;;;;9.73;7.53;;;;;;;;;;5014182;28;20287;-74
2021/10/08 00:49:25;;;;;;;8.65;7.80;;;;;;;;;;5013783;28;20201;-74
2021/10/08 00:51:52;;;;;;;10.52;7.72;;;;;;;;;;5022798;28;20739;-73
2021/10/08 00:54:19;;;;;;;8.75;7.88;;;;;;;;;;5014555;28;20201;-74
2021/10/08 00:56:47;;;;;;;8.00;7.30;;;;;;;;;;5013551;28;20247;-73
2021/10/08 00:59:14;;;;;;;7.65;6.90;;;;;;;;;;5014140;28;20201;-73
2021/10/08 01:01:41;;;;;;;7.35;6.65;;;;;;;;;;5013471;28;20213;-74
2021/10/08 01:04:11;;;;;;;8.95;8.05;;;;;;;;;;5013594;28;20197;-73
2021/10/08 01:06:38;;;;;;;9.55;8.60;;;;;;;;;;5012744;28;20603;-73
2021/10/08 01:09:05;;;;;;;8.45;7.75;;;;;;;;;;5018157;28;20192;-75
2021/10/08 01:11:32;;;;;;;8.82;7.93;;;;;;;;;;5011962;28;20193;-74
2021/10/08 01:14:03;;;;;;;10.40;9.32;;;;;;;;;;5012611;28;20710;-75
2021/10/08 01:16:30;;;;;;;8.40;7.38;;;;;;;;;;5013684;28;20203;-75
2021/10/08 01:18:57;;;;;;;8.88;7.60;;;;;;;;;;5014542;28;20672;-74
2021/10/08 01:21:25;;;;;;;9.05;8.02;;;;;;;;;;5018836;28;20213;-74
2021/10/08 01:23:52;;;;;;;9.95;7.88;;;;;;;;;;5012916;28;20623;-73
2021/10/08 01:26:19;;;;;;;7.13;6.18;;;;;;;;;;5013403;28;20197;-73
2021/10/08 01:28:46;;;;;;;9.13;7.43;;;;;;;;;;5012631;28;20603;-73
2021/10/08 01:31:13;;;;;;;7.20;6.55;;;;;;;;;;5013343;28;20243;-74
2021/10/08 01:33:40;;;;;;;9.13;7.68;;;;;;;;;;5023142;28;20618;-73
2021/10/08 01:36:07;;;;;;;8.23;7.53;;;;;;;;;;5011137;28;20205;-73
2021/10/08 01:38:35;;;;;;;8.55;7.70;;;;;;;;;;5024880;28;20197;-74
2021/10/08 01:41:02;;;;;;;10.73;6.30;;;;;;;;;;5012272;28;20279;-72
2021/10/08 01:43:29;;;;;;;9.38;7.53;;;;;;;;;;5013475;28;20671;-73
2021/10/08 01:45:56;;;;;;;8.88;7.18;;;;;;;;;;5021671;28;20204;-73
2021/10/08 01:48:23;;;;;;;7.95;6.95;;;;;;;;;;5012989;28;20714;-74
2021/10/08 01:50:50;;;;;;;8.07;7.28;;;;;;;;;;5012977;28;20227;-75
2021/10/08 01:53:17;;;;;;;7.20;6.50;;;;;;;;;;5010077;28;20208;-73
2021/10/08 01:55:46;;;;;;;8.48;7.57;;;;;;;;;;5012899;28;20216;-74
2021/10/08 01:58:13;;;;;;;8.73;7.90;;;;;;;;;;5001502;28;20260;-73
2021/10/08 02:00:40;;;;;;;8.00;6.35;;;;;;;;;;4999815;28;20283;-73
2021/10/08 02:03:07;;;;;;;7.38;6.60;;;;;;;;;;5013805;28;20197;-74
2021/10/08 02:05:34;;;;;;;7.60;6.80;;;;;;;;;;5012107;28;20204;-73
2021/10/08 02:08:01;;;;;;;7.03;6.43;;;;;;;;;;5012890;28;20254;-74
2021/10/08 02:10:28;;;;;;;7.95;6.95;;;;;;;;;;5026772;28;20730;-72
2021/10/08 02:12:56;;;;;;;7.70;6.97;;;;;;;;;;5002443;28;20256;-73
2021/10/08 02:15:23;;;;;;;7.35;6.65;;;;;;;;;;5004463;28;20211;-74
2021/10/08 02:17:50;;;;;;;7.45;6.75;;;;;;;;;;5016307;28;20266;-74
2021/10/08 02:20:17;;;;;;;6.55;5.82;;;;;;;;;;5012490;28;20254;-74
2021/10/08 02:22:46;;;;;;;8.70;7.10;;;;;;;;;;5018200;28;20247;-71
2021/10/08 02:25:13;;;;;;;7.15;6.45;;;;;;;;;;5013167;28;20623;-74
2021/10/08 02:27:40;;;;;;;6.78;6.00;;;;;;;;;;5012189;28;20275;-74
2021/10/08 02:30:09;;;;;;;6.95;5.90;;;;;;;;;;5011551;28;20216;-74
2021/10/08 02:32:36;;;;;;;7.95;6.35;;;;;;;;;;5026679;28;20196;-74
2021/10/08 02:35:04;;;;;;;7.70;6.78;;;;;;;;;;5022285;28;20247;-74
2021/10/08 02:37:31;;;;;;;9.00;7.03;;;;;;;;;;5012435;28;20193;-74
2021/10/08 02:39:58;;;;;;;7.53;6.78;;;;;;;;;;5012065;28;20243;-74
2021/10/08 02:42:25;;;;;;;7.70;7.00;;;;;;;;;;5007139;28;20218;-74
2021/10/08 02:44:52;;;;;;;6.47;5.88;;;;;;;;;;5012816;28;20201;-75
2021/10/08 02:47:20;;;;;;;6.90;6.05;;;;;;;;;;5018815;28;20196;-75
2021/10/08 02:49:47;;;;;;;7.45;5.90;;;;;;;;;;5014362;28;20714;-75
2021/10/08 02:52:14;;;;;;;7.47;6.68;;;;;;;;;;5011267;28;20196;-75
2021/10/08 02:54:41;;;;;;;7.85;6.43;;;;;;;;;;5011317;28;20270;-76
2021/10/08 02:57:08;;;;;;;6.65;6.00;;;;;;;;;;5007074;28;20197;-74
2021/10/08 02:59:35;;;;;;;6.97;6.28;;;;;;;;;;5008631;28;20730;-75
2021/10/08 03:02:02;;;;;;;8.10;6.85;;;;;;;;;;5012987;28;20220;-75
2021/10/08 03:04:31;;;;;;;7.30;6.60;;;;;;;;;;5012166;28;20263;-75
2021/10/08 03:06:58;;;;;;;7.30;6.55;;;;;;;;;;5004547;28;20259;-74
2021/10/08 03:09:25;;;;;;;8.45;6.50;;;;;;;;;;5011068;28;20196;-74
2021/10/08 03:11:52;;;;;;;8.80;7.07;;;;;;;;;;5015269;28;20197;-75
2021/10/08 03:14:19;;;;;;;7.85;6.97;;;;;;;;;;5011655;28;20251;-75
2021/10/08 03:16:46;;;;;;;9.27;6.90;;;;;;;;;;5011738;28;20247;-75
2021/10/08 03:19:13;;;;;;;7.32;6.63;;;;;;;;;;5010607;28;20209;-74
2021/10/08 03:21:41;;;;;;;7.30;6.40;;;;;;;;;;5014598;28;20270;-75
2021/10/08 03:24:08;;;;;;;9.60;7.55;;;;;;;;;;5026679;28;20674;-75
2021/10/08 03:26:35;;;;;;;8.50;6.95;;;;;;;;;;5011548;28;20196;-75
2021/10/08 03:29:02;;;;;;;8.98;8.13;;;;;;;;;;5002462;28;20656;-75
2021/10/08 03:31:29;;;;;;;7.47;6.78;;;;;;;;;;5017581;28;20216;-75
2021/10/08 03:33:56;;;;;;;7.95;7.15;;;;;;;;;;5019238;28;20205;-74
2021/10/08 03:36:27;;;;;;;8.70;6.95;;;;;;;;;;5014853;28;20200;-74
2021/10/08 03:38:56;;;;;;;9.40;7.53;;;;;;;;;;5021354;28;20340;-74
2021/10/08 03:41:23;;;;;;;7.95;6.60;;;;;;;;;;5008753;28;20217;-74
2021/10/08 03:43:54;;;;;;;7.22;6.35;;;;;;;;;;5006002;28;20320;-74
2021/10/08 03:46:21;;;;;;;7.78;7.13;;;;;;;;;;5010197;28;20200;-74
2021/10/08 03:49:13;;;;;;;7.82;7.03;;;;;;;;;;5011536;28;20197;-74
2021/10/08 03:51:41;;;;;;;6.65;5.95;;;;;;;;;;5009016;28;20208;-74
2021/10/08 03:54:09;;;;;;;12.18;7.05;;;;;;;;;;5007474;28;20201;-75
2021/10/08 03:56:36;;;;;;;7.43;6.65;;;;;;;;;;5006338;28;20221;-75
2021/10/08 03:59:04;;;;;;;7.45;6.50;;;;;;;;;;5009446;28;20251;-74
2021/10/08 04:01:31;;;;;;;6.97;6.28;;;;;;;;;;5011749;28;20618;-75
2021/10/08 04:03:58;;;;;;;6.43;5.75;;;;;;;;;;5025492;28;20268;-74
2021/10/08 04:06:25;;;;;;;7.25;5.93;;;;;;;;;;5011595;28;20197;-74
2021/10/08 04:08:52;;;;;;;6.93;6.20;;;;;;;;;;5017073;28;20247;-74
2021/10/08 04:11:20;;;;;;;7.88;6.55;;;;;;;;;;5028819;28;20239;-74
2021/10/08 04:13:47;;;;;;;6.75;6.15;;;;;;;;;;5011185;28;20271;-74
2021/10/08 04:16:14;;;;;;;10.48;6.45;;;;;;;;;;5015309;28;20259;-74
2021/10/08 04:18:41;;;;;;;7.57;6.35;;;;;;;;;;5017490;28;20255;-74
2021/10/08 04:21:09;;;;;;;7.55;5.50;;;;;;;;;;5016633;28;20647;-74
2021/10/08 04:23:36;;;;;;;6.50;5.82;;;;;;;;;;5014617;28;20208;-74
2021/10/08 04:26:03;;;;;;;6.70;6.03;;;;;;;;;;5015107;28;20270;-74
2021/10/08 04:28:31;;;;;;;6.03;5.53;;;;;;;;;;5004881;28;20722;-74
2021/10/08 04:30:58;;;;;;;7.00;6.40;;;;;;;;;;5013236;28;20271;-74
2021/10/08 04:33:26;;;;;;;6.63;5.95;;;;;;;;;;5013585;28;20235;-74
2021/10/08 04:35:56;;;;;;;6.90;6.10;;;;;;;;;;5011404;28;20619;-74
2021/10/08 04:38:23;;;;;;;7.18;6.53;;;;;;;;;;5014283;28;20204;-75
2021/10/08 04:40:51;;;;;;;6.18;5.65;;;;;;;;;;5018654;28;20544;-75
2021/10/08 04:43:18;;;;;;;6.60;6.00;;;;;;;;;;5012355;28;20220;-74
2021/10/08 04:45:46;;;;;;;10.15;6.93;;;;;;;;;;5014339;28;20659;-74
2021/10/08 04:48:13;;;;;;;6.95;5.78;;;;;;;;;;5014676;28;20212;-74
2021/10/08 04:50:40;;;;;;;6.53;5.95;;;;;;;;;;5014545;28;20614;-73
2021/10/08 04:53:14;;;;;;;6.45;5.75;;;;;;;;;;5021486;28;21421;-74
2021/10/08 04:55:42;;;;;;;7.18;6.45;;;;;;;;;;5014063;28;20547;-74
2021/10/08 04:58:09;;;;;;;6.35;5.78;;;;;;;;;;5011226;28;20549;-73
2021/10/08 05:00:37;;;;;;;7.18;6.47;;;;;;;;;;5014924;28;20201;-73
2021/10/08 05:03:09;;;;;;;5.60;5.07;;;;;;;;;;5015118;28;20676;-74
2021/10/08 05:05:36;;;;;;;6.90;5.28;;;;;;;;;;5005698;28;20196;-74
2021/10/08 05:08:03;;;;;;;6.40;5.80;;;;;;;;;;5013309;28;20671;-74
2021/10/08 05:10:30;;;;;;;5.88;5.28;;;;;;;;;;5014299;28;20193;-74
2021/10/08 05:12:57;;;;;;;6.40;5.72;;;;;;;;;;5014689;28;20200;-73
2021/10/08 05:15:24;;;;;;;7.93;7.13;;;;;;;;;;5001329;28;20197;-74
2021/10/08 05:17:51;;;;;;;7.35;6.45;;;;;;;;;;5017822;28;20197;-73
2021/10/08 05:20:20;;;;;;;6.20;5.47;;;;;;;;;;5007723;28;20675;-73
2021/10/08 05:22:47;;;;;;;6.70;6.10;;;;;;;;;;5012669;28;21026;-74
2021/10/08 05:25:14;;;;;;;6.60;5.78;;;;;;;;;;5031679;28;20193;-74
2021/10/08 05:27:41;;;;;;;6.43;5.82;;;;;;;;;;5016520;28;20259;-74
2021/10/08 05:30:08;;;;;;;6.57;5.97;;;;;;;;;;5017486;28;20216;-74
2021/10/08 05:32:35;;;;;;;5.38;4.97;;;;;;;;;;5013678;28;20271;-74
2021/10/08 05:35:02;;;;;;;5.90;5.40;;;;;;;;;;5013674;28;20607;-74
2021/10/08 05:37:31;;;;;;;7.07;6.38;;;;;;;;;;5013530;28;20205;-74
2021/10/08 05:39:58;;;;;;;6.93;5.90;;;;;;;;;;5006030;28;20251;-74
2021/10/08 05:42:25;;;;;;;7.82;6.28;;;;;;;;;;5011147;28;20229;-74
2021/10/08 05:44:52;;;;;;;6.93;6.32;;;;;;;;;;4993786;28;20201;-74
2021/10/08 05:47:19;;;;;;;6.80;5.70;;;;;;;;;;5005948;28;20266;-74
2021/10/08 05:49:46;;;;;;;6.50;5.80;;;;;;;;;;5008419;28;20733;-74
2021/10/08 05:52:13;;;;;;;8.23;6.30;;;;;;;;;;5012435;28;20193;-73
2021/10/08 05:54:41;;;;;;;10.75;7.40;;;;;;;;;;5014286;28;20204;-73
2021/10/08 05:57:08;;;;;;;7.13;6.35;;;;;;;;;;5014670;28;20197;-74
2021/10/08 05:59:36;;;;;;;7.45;6.13;;;;;;;;;;5013406;28;20196;-75
2021/10/08 06:02:03;;;;;;;8.07;7.03;;;;;;;;;;5013240;28;20224;-75
2021/10/08 06:04:30;;;;;;;8.27;6.90;;;;;;;;;;5012426;28;20197;-74
2021/10/08 06:06:57;;;;;;;7.53;5.90;;;;;;;;;;5013119;28;20227;-74
2021/10/08 06:09:24;;;;;;;6.95;5.78;;;;;;;;;;5011525;28;20627;-74
2021/10/08 06:11:52;;;;;;;6.55;5.97;;;;;;;;;;5010364;28;20197;-74
2021/10/08 06:14:19;;;;;;;8.05;6.82;;;;;;;;;;5009721;28;20229;-73
2021/10/08 06:16:46;;;;;;;6.80;6.20;;;;;;;;;;5011893;28;20250;-73
2021/10/08 06:19:13;;;;;;;6.95;6.15;;;;;;;;;;5010895;28;20201;-74
2021/10/08 06:21:40;;;;;;;6.22;5.63;;;;;;;;;;5011706;28;20474;-74
2021/10/08 06:24:07;;;;;;;7.35;6.10;;;;;;;;;;5012441;28;20200;-74
2021/10/08 06:26:34;;;;;;;6.95;6.15;;;;;;;;;;5011900;28;20240;-74
2021/10/08 06:29:03;;;;;;;6.00;5.32;;;;;;;;;;5013126;28;20208;-73
2021/10/08 06:31:30;;;;;;;6.82;6.15;;;;;;;;;;5015235;28;20710;-75
2021/10/08 06:33:58;;;;;;;7.18;6.50;;;;;;;;;;5014001;28;20201;-74
2021/10/08 06:36:25;;;;;;;7.05;5.35;;;;;;;;;;5011310;28;20299;-74
2021/10/08 06:38:52;;;;;;;7.10;5.85;;;;;;;;;;5011882;28;20246;-75
2021/10/08 06:41:19;;;;;;;7.28;6.32;;;;;;;;;;5012236;28;20208;-74
2021/10/08 06:43:46;;;;;;;6.35;5.75;;;;;;;;;;5021938;28;20623;-74
2021/10/08 06:46:14;;;;;;;9.55;5.60;;;;;;;;;;5012840;28;20791;-74
2021/10/08 06:48:41;;;;;;;6.88;5.22;;;;;;;;;;5016629;28;20185;-74
2021/10/08 06:51:08;;;;;;;8.43;6.55;;;;;;;;;;5011811;28;20196;-74
2021/10/08 06:53:35;;;;;;;6.43;5.78;;;;;;;;;;5011791;28;20215;-74
2021/10/08 06:56:02;;;;;;;6.22;4.70;;;;;;;;;;5018303;28;20204;-75
2021/10/08 06:58:30;;;;;;;8.77;5.88;;;;;;;;;;5012393;28;20200;-75
2021/10/08 07:00:56;;;;;;;5.45;4.95;;;;;;;;;;5013369;28;20200;-74
2021/10/08 07:03:26;;;;;;;5.07;4.53;;;;;;;;;;5026762;28;20722;-78
2021/10/08 07:05:53;;;;;;;8.18;4.60;;;;;;;;;;5015705;28;20209;-79
2021/10/08 07:08:20;;;;;;;4.93;4.10;;;;;;;;;;5010592;28;20220;-78
2021/10/08 07:10:47;;;;;;;4.65;4.25;;;;;;;;;;5013091;28;20200;-78
2021/10/08 07:13:14;;;;;;;5.15;4.65;;;;;;;;;;5000068;28;20209;-78
2021/10/08 07:15:42;;;;;;;4.20;3.90;;;;;;;;;;5004033;28;20656;-78
2021/10/08 07:18:14;;;;;;;5.20;4.50;;;;;;;;;;5011181;28;20664;-78
2021/10/08 07:20:46;;;;;;;4.45;3.80;;;;;;;;;;5012727;28;20212;-78
2021/10/08 07:23:13;;;;;;;4.55;4.15;;;;;;;;;;5014107;28;20299;-78
2021/10/08 07:25:40;;;;;;;5.57;4.22;;;;;;;;;;5031602;28;20265;-77
2021/10/08 07:28:07;;;;;;;3.72;3.42;;;;;;;;;;4999149;28;20612;-78
2021/10/08 07:30:34;;;;;;;5.30;4.25;;;;;;;;;;5009355;28;20703;-78
2021/10/08 07:33:02;;;;;;;3.88;3.28;;;;;;;;;;5029689;28;20663;-77
2021/10/08 07:35:29;;;;;;;5.10;4.20;;;;;;;;;;5007348;28;20205;-78
2021/10/08 07:37:57;;;;;;;4.28;3.85;;;;;;;;;;5011920;28;20200;-78
2021/10/08 07:40:24;;;;;;;4.32;3.92;;;;;;;;;;5011161;28;20205;-78
2021/10/08 07:42:51;;;;;;;4.30;3.90;;;;;;;;;;5012954;28;20249;-78
2021/10/08 07:45:18;;;;;;;6.05;3.75;;;;;;;;;;5021862;28;20583;-78
2021/10/08 07:47:45;;;;;;;4.40;3.92;;;;;;;;;;5015255;28;20242;-77
2021/10/08 07:50:14;;;;;;;5.63;5.10;;;;;;;;;;5020314;28;20647;-78
2021/10/08 07:52:41;;;;;;;4.95;4.00;;;;;;;;;;5010121;28;20651;-79
2021/10/08 07:55:11;;;;;;;4.40;4.00;;;;;;;;;;5015619;28;20231;-78
2021/10/08 07:57:38;;;;;;;4.97;4.38;;;;;;;;;;5013234;28;20248;-77
2021/10/08 08:00:07;;;;;;;3.90;3.30;;;;;;;;;;5017647;28;20247;-79
2021/10/08 08:02:34;;;;;;;5.43;4.45;;;;;;;;;;5026077;28;20224;-78
2021/10/08 08:05:01;;;;;;;4.43;4.13;;;;;;;;;;5013311;28;20204;-79
2021/10/08 08:07:29;;;;;;;4.10;3.78;;;;;;;;;;5014215;28;20197;-78
2021/10/08 08:09:56;;;;;;;4.40;3.78;;;;;;;;;;5014743;28;20579;-78
2021/10/08 08:12:24;;;;;;;4.60;4.20;;;;;;;;;;5013567;28;20247;-78
2021/10/08 08:14:52;;;;;;;3.95;3.58;;;;;;;;;;5017870;28;20215;-77
2021/10/08 08:17:20;;;;;;;7.53;6.57;;;;;;;;;;5013152;28;20280;-82
2021/10/08 08:19:47;;;;;;;5.95;5.35;;;;;;;;;;5024433;28;20209;-76
2021/10/08 08:22:15;;;;;;;4.05;3.67;;;;;;;;;;5027845;28;20584;-77
2021/10/08 08:24:42;;;;;;;5.68;5.00;;;;;;;;;;5025687;28;20255;-80
2021/10/08 08:27:09;;;;;;;4.95;4.45;;;;;;;;;;5018185;28;20200;-76
2021/10/08 08:29:37;;;;;;;5.05;4.35;;;;;;;;;;5013056;28;20255;-76
2021/10/08 08:32:04;;;;;;;4.80;4.10;;;;;;;;;;5012844;28;20540;-76
2021/10/08 08:34:31;;;;;;;5.05;4.03;;;;;;;;;;5017278;28;20275;-77
2021/10/08 08:36:59;;;;;;;4.60;4.20;;;;;;;;;;5024497;28;20199;-77
2021/10/08 08:39:26;;;;;;;6.15;4.35;;;;;;;;;;5034295;28;20200;-76
2021/10/08 08:41:53;;;;;;;4.53;4.13;;;;;;;;;;5013651;28;20196;-76
2021/10/08 08:44:20;;;;;;;3.75;3.40;;;;;;;;;;5015305;28;20211;-76
2021/10/08 08:46:49;;;;;;;4.30;3.90;;;;;;;;;;5021156;28;20622;-76
2021/10/08 08:49:16;;;;;;;5.22;4.32;;;;;;;;;;5014282;28;20670;-76
2021/10/08 08:51:43;;;;;;;4.20;3.80;;;;;;;;;;5019684;28;20251;-77
2021/10/08 08:54:11;;;;;;;4.80;4.40;;;;;;;;;;5022330;28;20193;-78
2021/10/08 08:56:38;;;;;;;3.65;3.33;;;;;;;;;;5015052;28;20204;-76
2021/10/08 08:59:06;;;;;;;4.50;4.10;;;;;;;;;;5026536;28;20228;-81
2021/10/08 09:01:34;;;;;;;4.72;4.32;;;;;;;;;;5014604;28;20765;-81
2021/10/08 09:04:03;;;;;;;4.53;4.13;;;;;;;;;;5014740;28;20723;-82
2021/10/08 09:06:30;;;;;;;4.47;3.83;;;;;;;;;;5022780;28;20204;-80
2021/10/08 09:08:57;;;;;;;10.13;8.88;;;;;;;;;;5016197;28;20201;-81
2021/10/08 09:11:36;;;;;;;8.07;6.95;;;;;;;;;;5013906;28;20208;-81
2021/10/08 09:14:14;;;;;;;6.93;6.32;;;;;;;;;;5014284;28;20203;-81
2021/10/08 09:17:05;;;;;;;8.25;6.20;;;;;;;;;;5021660;28;20197;-81
2021/10/08 09:19:47;;;;;;;7.50;6.25;;;;;;;;;;5012463;28;20670;-81
2021/10/08 09:22:14;;;;;;;8.98;6.38;;;;;;;;;;5013679;28;20232;-82
2021/10/08 09:24:41;;;;;;;6.55;5.80;;;;;;;;;;5013421;28;20687;-80
2021/10/08 09:27:09;;;;;;;7.25;6.55;;;;;;;;;;5022334;28;20197;-82
2021/10/08 09:29:36;;;;;;;5.68;5.15;;;;;;;;;;5014855;28;20201;-82
2021/10/08 09:32:05;;;;;;;5.78;5.20;;;;;;;;;;5013510;28;20247;-83
2021/10/08 09:34:32;;;;;;;7.97;5.38;;;;;;;;;;5013986;28;20228;-83
2021/10/08 09:37:03;;;;;;;5.80;4.93;;;;;;;;;;5012535;28;20224;-80
2021/10/08 09:39:33;;;;;;;12.35;10.93;;;;;;;;;;5023619;28;20283;-77
2021/10/08 09:42:01;;;;;;;11.38;8.80;;;;;;;;;;5009879;28;20628;-80
2021/10/08 09:44:28;;;;;;;12.57;7.90;;;;;;;;;;5008096;28;20224;-81
2021/10/08 09:47:08;;;;;;;9.20;7.20;;;;;;;;;;5013440;28;20205;-81
2021/10/08 09:49:35;;;;;;;10.45;7.80;;;;;;;;;;5013415;28;20185;-80
2021/10/08 09:52:18;;;;;;;8.90;7.53;;;;;;;;;;5009375;28;20251;-80
2021/10/08 09:54:49;;;;;;;9.32;6.97;;;;;;;;;;5012490;28;20627;-80
2021/10/08 09:57:16;;;;;;;9.80;6.88;;;;;;;;;;5010403;28;20223;-80
2021/10/08 09:59:43;;;;;;;9.38;7.20;;;;;;;;;;5013188;28;20685;-80
2021/10/08 10:02:11;;;;;;;6.82;6.03;;;;;;;;;;5013050;28;20664;-80
2021/10/08 10:04:47;;;;;;;9.63;6.80;;;;;;;;;;5000476;28;20742;-80
2021/10/08 10:07:17;;;;;;;6.75;6.05;;;;;;;;;;5017543;28;20606;-81
2021/10/08 10:09:44;;;;;;;5.95;5.45;;;;;;;;;;5012986;28;20220;-79
2021/10/08 10:12:11;;;;;;;6.43;5.82;;;;;;;;;;5008261;28;20193;-80
2021/10/08 10:14:40;;;;;;;9.57;6.47;;;;;;;;;;5009528;28;20212;-79
2021/10/08 10:17:08;;;;;;;7.35;5.60;;;;;;;;;;5014571;28;20735;-81
2021/10/08 10:19:39;;;;;;;7.55;6.95;;;;;;;;;;5013911;28;20207;-80
2021/10/08 10:22:06;;;;;;;5.35;4.85;;;;;;;;;;5010424;28;20699;-81
2021/10/08 10:24:37;;;;;;;5.57;5.18;;;;;;;;;;5011841;28;20564;-79
2021/10/08 10:27:04;;;;;;;8.65;7.75;;;;;;;;;;5011574;28;20300;-80
2021/10/08 10:29:32;;;;;;;11.55;8.02;;;;;;;;;;5012323;28;20205;-81
2021/10/08 10:31:59;;;;;;;6.10;5.60;;;;;;;;;;5011373;28;20208;-81
2021/10/08 10:34:26;;;;;;;7.53;6.85;;;;;;;;;;5015976;28;20197;-81
2021/10/08 10:36:53;;;;;;;6.65;5.57;;;;;;;;;;5011234;28;20205;-81
2021/10/08 10:39:21;;;;;;;7.72;7.00;;;;;;;;;;5012240;28;20197;-81
2021/10/08 10:41:50;;;;;;;6.97;5.93;;;;;;;;;;5011355;28;20652;-80
2021/10/08 10:44:21;;;;;;;6.18;5.15;;;;;;;;;;5003393;28;20557;-80
2021/10/08 10:46:56;;;;;;;6.80;6.20;;;;;;;;;;5012480;28;20334;-80
2021/10/08 10:49:34;;;;;;;5.90;5.30;;;;;;;;;;4993405;28;20201;-80
2021/10/08 10:52:12;;;;;;;8.55;6.28;;;;;;;;;;5000677;28;20204;-80
2021/10/08 10:54:55;;;;;;;13.38;5.70;;;;;;;;;;5003952;28;20201;-80
2021/10/08 10:57:37;;;;;;;4.97;4.55;;;;;;;;;;5020593;28;20667;-82
2021/10/08 11:00:19;;;;;;;5.68;5.07;;;;;;;;;;5010676;28;20552;-81
2021/10/08 11:02:47;;;;;;;6.43;5.10;;;;;;;;;;5011768;28;20209;-79
2021/10/08 11:05:20;;;;;;;6.05;5.13;;;;;;;;;;5010786;28;20229;-81
2021/10/08 11:08:02;;;;;;;5.13;4.57;;;;;;;;;;5007456;28;20336;-79
2021/10/08 11:10:29;;;;;;;5.72;5.15;;;;;;;;;;5005921;28;20196;-80
2021/10/08 11:13:16;;;;;;;5.82;4.90;;;;;;;;;;5010784;28;20267;-80
2021/10/08 11:15:52;;;;;;;4.63;3.65;;;;;;;;;;5012161;28;20205;-82
2021/10/08 11:18:34;;;;;;;3.72;3.42;;;;;;;;;;5003831;28;20193;-79
2021/10/08 11:21:03;;;;;;;6.78;4.20;;;;;;;;;;5005025;28;20260;-80
2021/10/08 11:23:32;;;;;;;6.65;3.85;;;;;;;;;;5010103;28;20231;-80
2021/10/08 11:26:00;;;;;;;5.82;4.93;;;;;;;;;;5010760;28;20196;-77
2021/10/08 11:28:29;;;;;;;4.22;3.92;;;;;;;;;;5008312;28;20197;-75
2021/10/08 11:30:56;;;;;;;4.05;3.30;;;;;;;;;;5002892;28;20699;-75
2021/10/08 11:33:41;;;;;;;3.67;3.20;;;;;;;;;;4998823;28;20205;-75
2021/10/08 11:36:19;;;;;;;4.55;3.40;;;;;;;;;;5004492;28;20664;-75
2021/10/08 11:38:47;;;;;;;3.45;3.10;;;;;;;;;;5006101;28;20259;-76
2021/10/08 11:41:15;;;;;;;3.03;2.70;;;;;;;;;;5000876;28;20197;-76
2021/10/08 11:43:43;;;;;;;4.18;3.13;;;;;;;;;;5001743;28;20220;-76
2021/10/08 11:46:20;;;;;;;2.85;2.55;;;;;;;;;;5002559;28;20675;-75
2021/10/08 11:48:51;;;;;;;4.72;3.13;;;;;;;;;;4998115;28;20208;-76
2021/10/08 11:51:19;;;;;;;3.50;2.88;;;;;;;;;;5006260;28;20600;-76
2021/10/08 11:53:47;;;;;;;4.70;2.65;;;;;;;;;;5005772;28;20243;-76
2021/10/08 11:56:24;;;;;;;2.90;2.50;;;;;;;;;;5002760;28;20245;-76
2021/10/08 11:58:51;;;;;;;2.85;2.30;;;;;;;;;;5004949;28;20291;-76
2021/10/08 12:01:22;;;;;;;3.13;2.83;;;;;;;;;;5003018;28;20689;-74
2021/10/08 12:03:49;;;;;;;2.78;2.50;;;;;;;;;;5005024;28;20257;-75
2021/10/08 12:06:22;;;;;;;3.97;2.75;;;;;;;;;;5007597;28;20205;-76
2021/10/08 12:08:49;;;;;;;2.65;2.45;;;;;;;;;;4999842;28;20612;-76
2021/10/08 12:11:18;;;;;;;4.15;2.42;;;;;;;;;;5003592;28;20232;-76
2021/10/08 12:13:46;;;;;;;2.67;2.35;;;;;;;;;;5000940;28;20204;-75
2021/10/08 12:16:14;;;;;;;3.42;3.13;;;;;;;;;;5006746;28;20588;-75
2021/10/08 12:18:51;;;;;;;2.85;2.63;;;;;;;;;;5003271;28;20200;-75
2021/10/08 12:21:19;;;;;;;3.53;3.22;;;;;;;;;;5001232;28;20734;-76
2021/10/08 12:23:55;;;;;;;3.08;2.85;;;;;;;;;;5005062;28;20220;-77
2021/10/08 12:26:22;;;;;;;3.15;2.70;;;;;;;;;;5000925;28;20189;-76
2021/10/08 12:28:51;;;;;;;3.78;3.30;;;;;;;;;;5000701;28;20196;-77
2021/10/08 12:31:18;;;;;;;3.47;2.78;;;;;;;;;;5006820;28;20220;-76
2021/10/08 12:33:47;;;;;;;4.30;2.97;;;;;;;;;;5010069;28;20201;-75
2021/10/08 12:36:15;;;;;;;3.20;2.90;;;;;;;;;;5007104;28;20208;-76
2021/10/08 12:38:52;;;;;;;3.58;2.70;;;;;;;;;;5014129;28;20204;-76
2021/10/08 12:41:22;;;;;;;3.35;2.63;;;;;;;;;;4997706;28;20204;-75
2021/10/08 12:43:49;;;;;;;5.03;2.70;;;;;;;;;;5012246;28;20235;-76
2021/10/08 12:46:20;;;;;;;2.85;2.33;;;;;;;;;;5013283;28;20192;-76
2021/10/08 12:48:57;;;;;;;3.20;2.90;;;;;;;;;;5014817;28;20197;-76
2021/10/08 12:51:24;;;;;;;2.10;2.00;;;;;;;;;;5012868;28;20224;-76
2021/10/08 12:54:06;;;;;;;4.07;2.70;;;;;;;;;;5011983;28;20201;-76
2021/10/08 12:56:35;;;;;;;3.75;2.25;;;;;;;;;;5013318;28;20209;-77
2021/10/08 12:59:02;;;;;;;2.47;2.28;;;;;;;;;;5012487;28;20205;-76
2021/10/08 13:01:29;;;;;;;3.13;2.75;;;;;;;;;;5019644;28;20192;-76
2021/10/08 13:03:57;;;;;;;3.97;3.05;;;;;;;;;;5013734;28;20625;-75
2021/10/08 13:06:29;;;;;;;5.10;2.90;;;;;;;;;;5013455;28;20201;-75
2021/10/08 13:09:08;;;;;;;7.75;2.97;;;;;;;;;;5014233;28;20609;-75
2021/10/08 13:11:39;;;;;;;2.60;2.40;;;;;;;;;;5004506;28;20220;-77
2021/10/08 13:14:06;;;;;;;6.13;3.60;;;;;;;;;;5013610;28;20652;-76
2021/10/08 13:16:36;;;;;;;2.90;2.70;;;;;;;;;;5017413;28;20193;-75
2021/10/08 13:19:04;;;;;;;2.92;2.60;;;;;;;;;;5011521;28;20243;-77
2021/10/08 13:21:31;;;;;;;2.35;2.13;;;;;;;;;;5011757;28;20204;-75
2021/10/08 13:23:58;;;;;;;7.10;2.47;;;;;;;;;;5013118;28;20344;-75
2021/10/08 13:26:25;;;;;;;3.47;3.13;;;;;;;;;;5013694;28;20247;-75
2021/10/08 13:28:54;;;;;;;3.08;2.88;;;;;;;;;;4994928;28;20571;-76
2021/10/08 13:31:21;;;;;;;5.57;3.08;;;;;;;;;;5008917;28;20319;-75
2021/10/08 13:33:48;;;;;;;4.95;2.80;;;;;;;;;;5012655;28;20628;-76
2021/10/08 13:36:15;;;;;;;4.07;2.65;;;;;;;;;;5012910;28;20205;-76
2021/10/08 13:38:42;;;;;;;3.20;2.40;;;;;;;;;;4993733;28;20625;-76
2021/10/08 13:41:09;;;;;;;3.10;2.50;;;;;;;;;;4993918;28;20248;-75
2021/10/08 13:43:37;;;;;;;3.40;2.88;;;;;;;;;;5009490;28;20201;-77
2021/10/08 13:46:06;;;;;;;5.95;2.92;;;;;;;;;;5012205;28;20371;-77
2021/10/08 13:48:33;;;;;;;3.17;2.80;;;;;;;;;;5012975;28;20655;-78
2021/10/08 13:51:00;;;;;;;2.08;1.98;;;;;;;;;;5013586;28;20255;-76
2021/10/08 13:53:27;;;;;;;3.40;3.15;;;;;;;;;;5000389;28;20196;-76
2021/10/08 13:55:54;;;;;;;3.10;2.80;;;;;;;;;;5016017;28;20193;-75
2021/10/08 13:58:21;;;;;;;3.25;2.72;;;;;;;;;;5012271;28;20618;-76
2021/10/08 14:00:51;;;;;;;2.85;2.65;;;;;;;;;;5011545;28;20209;-76
2021/10/08 14:03:30;;;;;;;2.75;2.38;;;;;;;;;;5004943;28;20651;-76
2021/10/08 14:08:53;;;;;;;2.72;2.53;;;;;;;;;;4950936;28;20247;-76
2021/10/08 14:11:20;;;;;;;2.15;2.05;;;;;;;;;;5004069;28;20211;-75
2021/10/08 14:13:51;;;;;;;2.47;2.28;;;;;;;;;;5004829;28;20193;-76
2021/10/08 14:16:18;;;;;;;5.63;2.53;;;;;;;;;;5005257;28;20623;-76
2021/10/08 14:18:47;;;;;;;3.35;2.45;;;;;;;;;;5004494;28;20251;-76
2021/10/08 14:21:14;;;;;;;3.40;2.10;;;;;;;;;;5000849;28;20199;-76
2021/10/08 14:23:43;;;;;;;2.45;2.10;;;;;;;;;;5004191;28;20615;-76
2021/10/08 14:26:10;;;;;;;3.38;2.28;;;;;;;;;;5003344;28;20680;-77
2021/10/08 14:28:37;;;;;;;3.47;3.17;;;;;;;;;;5005404;28;20216;-74
2021/10/08 14:31:04;;;;;;;5.78;2.85;;;;;;;;;;5005069;28;20212;-76
2021/10/08 14:33:31;;;;;;;4.85;2.90;;;;;;;;;;4999234;28;20209;-77
2021/10/08 14:35:59;;;;;;;3.67;2.78;;;;;;;;;;5000439;28;20194;-77
2021/10/08 14:38:26;;;;;;;4.30;2.50;;;;;;;;;;5006805;28;20703;-76
2021/10/08 14:40:53;;;;;;;5.18;2.45;;;;;;;;;;5004611;28;20189;-76
2021/10/08 14:43:20;;;;;;;2.95;2.50;;;;;;;;;;5002868;28;20657;-77
2021/10/08 14:45:47;;;;;;;2.15;2.00;;;;;;;;;;5002403;28;20272;-74
2021/10/08 14:48:14;;;;;;;3.28;2.75;;;;;;;;;;5002106;28;20194;-76
2021/10/08 14:50:42;;;;;;;2.75;2.55;;;;;;;;;;5003498;28;20201;-75
2021/10/08 14:53:15;;;;;;;2.03;1.83;;;;;;;;;;5003859;28;20693;-76